Time;durP1;ratioP1;P1;durP2;ratioP2;P2;SDS_P1;SDS_P2;PMS_P1;PMS_P2;Temp;Humidity;BMP_temperature;BMP_pressure;BME280_temperature;BME280_humidity;BME280_pressure;Samples;Min_cycle;Max_cycle;Signal;HPM_P1;HPM_P2
2022/11/06 00:00:38;;;;;;;6.97;4.80;;;;;;;;;;5098677;28;20579;-63
2022/11/06 00:03:06;;;;;;;9.67;6.47;;;;;;;;;;5098831;28;20288;-63
2022/11/06 00:08:31;;;;;;;12.83;6.97;;;;;;;;;;5094109;28;20280;-63
2022/11/06 00:10:58;;;;;;;10.20;6.57;;;;;;;;;;5098712;28;20680;-64
2022/11/06 00:13:26;;;;;;;10.33;6.67;;;;;;;;;;5098533;28;20221;-63
2022/11/06 00:15:54;;;;;;;10.27;7.17;;;;;;;;;;5097461;28;20257;-63
2022/11/06 00:18:25;;;;;;;13.90;7.60;;;;;;;;;;5085592;28;20296;-63
2022/11/06 00:20:53;;;;;;;9.53;6.17;;;;;;;;;;5098481;28;20260;-64
2022/11/06 00:23:20;;;;;;;9.50;5.97;;;;;;;;;;5098217;28;20229;-64
2022/11/06 00:25:51;;;;;;;12.57;6.17;;;;;;;;;;5098522;28;20205;-64
2022/11/06 00:28:19;;;;;;;9.03;6.20;;;;;;;;;;5098537;28;20237;-63
2022/11/06 00:30:47;;;;;;;7.87;5.83;;;;;;;;;;5098347;28;20288;-64
2022/11/06 00:33:15;;;;;;;10.60;6.80;;;;;;;;;;5098345;28;20240;-64
2022/11/06 00:35:42;;;;;;;11.90;7.43;;;;;;;;;;5097949;28;20752;-63
2022/11/06 00:38:10;;;;;;;10.30;7.80;;;;;;;;;;5097144;28;20305;-64
2022/11/06 00:40:38;;;;;;;10.37;6.90;;;;;;;;;;5098041;28;20229;-63
2022/11/06 00:43:07;;;;;;;16.80;7.40;;;;;;;;;;5097754;28;20237;-63
2022/11/06 00:45:35;;;;;;;10.97;7.40;;;;;;;;;;5098051;28;20669;-63
2022/11/06 00:48:02;;;;;;;11.90;7.80;;;;;;;;;;5097779;28;20308;-63
2022/11/06 00:50:30;;;;;;;11.23;7.30;;;;;;;;;;5097766;28;20210;-63
2022/11/06 00:52:58;;;;;;;14.03;7.70;;;;;;;;;;5097697;28;20308;-63
2022/11/06 00:55:25;;;;;;;10.30;6.90;;;;;;;;;;5097762;28;20236;-64
2022/11/06 00:57:53;;;;;;;11.73;7.07;;;;;;;;;;5097622;28;20664;-63
2022/11/06 01:00:22;;;;;;;11.80;7.63;;;;;;;;;;5097941;28;20294;-64
2022/11/06 01:02:50;;;;;;;10.60;7.27;;;;;;;;;;5097976;28;20267;-64
2022/11/06 01:05:17;;;;;;;9.13;6.53;;;;;;;;;;5097264;28;20228;-63
2022/11/06 01:07:45;;;;;;;11.57;7.23;;;;;;;;;;5094919;28;20201;-63
2022/11/06 01:10:13;;;;;;;11.77;7.30;;;;;;;;;;5097739;28;20240;-63
2022/11/06 01:12:41;;;;;;;8.93;6.27;;;;;;;;;;5097579;28;20240;-63
2022/11/06 01:15:09;;;;;;;8.60;6.77;;;;;;;;;;5097487;28;20225;-63
2022/11/06 01:17:38;;;;;;;12.37;6.90;;;;;;;;;;5085830;28;20289;-63
2022/11/06 01:20:07;;;;;;;11.67;7.40;;;;;;;;;;5083886;28;20264;-63
2022/11/06 01:22:34;;;;;;;8.93;6.27;;;;;;;;;;5097565;28;20216;-63
2022/11/06 01:25:02;;;;;;;10.43;6.80;;;;;;;;;;5097579;28;20289;-63
2022/11/06 01:27:30;;;;;;;9.30;6.57;;;;;;;;;;5099323;28;20236;-63
2022/11/06 01:29:58;;;;;;;10.50;6.43;;;;;;;;;;5101623;28;20280;-63
2022/11/06 01:32:25;;;;;;;10.50;6.90;;;;;;;;;;5101829;28;20233;-63
2022/11/06 01:34:54;;;;;;;11.10;6.67;;;;;;;;;;5101536;28;20265;-63
2022/11/06 01:37:22;;;;;;;10.03;6.93;;;;;;;;;;5100682;28;20594;-64
2022/11/06 01:39:50;;;;;;;8.83;6.80;;;;;;;;;;5101672;28;20308;-63
2022/11/06 01:42:19;;;;;;;9.77;6.43;;;;;;;;;;5101607;28;20288;-64
2022/11/06 01:45:14;;;;;;;15.23;6.40;;;;;;;;;;5101532;28;20742;-64
2022/11/06 01:47:42;;;;;;;13.10;7.23;;;;;;;;;;5101689;28;20206;-63
2022/11/06 01:50:12;;;;;;;13.60;7.50;;;;;;;;;;5101250;28;20226;-62
2022/11/06 01:52:40;;;;;;;11.97;8.33;;;;;;;;;;5101315;28;20288;-63
2022/11/06 01:55:10;;;;;;;9.77;6.73;;;;;;;;;;5101044;28;20264;-63
2022/11/06 01:57:38;;;;;;;11.97;6.83;;;;;;;;;;5101035;28;20264;-63
2022/11/06 02:00:06;;;;;;;12.43;7.53;;;;;;;;;;5101031;28;20289;-63
2022/11/06 02:02:34;;;;;;;10.63;7.03;;;;;;;;;;5101081;28;20288;-63
2022/11/06 02:05:02;;;;;;;9.30;5.83;;;;;;;;;;5100830;28;20241;-63
2022/11/06 02:07:33;;;;;;;11.33;6.80;;;;;;;;;;5099799;28;20213;-62
2022/11/06 02:10:00;;;;;;;12.90;7.40;;;;;;;;;;5101027;28;20265;-63
2022/11/06 02:12:35;;;;;;;10.70;6.97;;;;;;;;;;5100991;28;20235;-63
2022/11/06 02:15:10;;;;;;;10.00;6.53;;;;;;;;;;5101044;28;20264;-63
2022/11/06 02:17:44;;;;;;;10.93;5.70;;;;;;;;;;5100878;28;20201;-63
2022/11/06 02:20:16;;;;;;;11.93;6.23;;;;;;;;;;5088097;28;20315;-63
2022/11/06 02:23:01;;;;;;;11.33;6.57;;;;;;;;;;5098718;28;20265;-63
2022/11/06 02:25:36;;;;;;;10.87;5.63;;;;;;;;;;5087910;28;20266;-63
2022/11/06 02:28:09;;;;;;;6.77;4.70;;;;;;;;;;5100656;28;20246;-63
2022/11/06 02:30:44;;;;;;;8.17;4.97;;;;;;;;;;5100945;28;20213;-63
2022/11/06 02:33:13;;;;;;;9.20;5.87;;;;;;;;;;5100910;28;20232;-63
2022/11/06 02:35:43;;;;;;;8.40;6.00;;;;;;;;;;5099586;28;20259;-63
2022/11/06 02:38:12;;;;;;;8.47;5.50;;;;;;;;;;5099834;28;20265;-63
2022/11/06 02:40:42;;;;;;;9.47;5.17;;;;;;;;;;5099937;28;20286;-63
2022/11/06 02:43:13;;;;;;;15.03;5.63;;;;;;;;;;5100526;28;20201;-64
2022/11/06 02:45:48;;;;;;;8.73;5.13;;;;;;;;;;5100188;28;20312;-63
2022/11/06 02:48:17;;;;;;;6.87;5.13;;;;;;;;;;5100174;28;20236;-63
2022/11/06 02:50:47;;;;;;;9.57;5.40;;;;;;;;;;5100148;28;20270;-63
2022/11/06 02:53:16;;;;;;;9.70;6.43;;;;;;;;;;5100094;28;20209;-63
2022/11/06 02:55:46;;;;;;;8.90;5.17;;;;;;;;;;5100192;28;20240;-64
2022/11/06 02:58:16;;;;;;;10.87;5.60;;;;;;;;;;5099829;28;20258;-63
2022/11/06 03:00:47;;;;;;;7.50;5.60;;;;;;;;;;5086933;28;20312;-63
2022/11/06 03:03:17;;;;;;;9.63;5.57;;;;;;;;;;5099839;28;20237;-63
2022/11/06 03:05:47;;;;;;;9.57;5.40;;;;;;;;;;5098744;28;20663;-63
2022/11/06 03:08:18;;;;;;;7.10;5.40;;;;;;;;;;5099544;28;20237;-63
2022/11/06 03:10:49;;;;;;;8.80;5.33;;;;;;;;;;5099696;28;20267;-63
2022/11/06 03:13:19;;;;;;;7.80;5.53;;;;;;;;;;5099640;28;20212;-63
2022/11/06 03:15:52;;;;;;;9.27;5.40;;;;;;;;;;5099895;28;20271;-63
2022/11/06 03:18:24;;;;;;;8.87;5.33;;;;;;;;;;5099286;28;20240;-63
2022/11/06 03:20:57;;;;;;;7.07;5.10;;;;;;;;;;5099425;28;20265;-63
2022/11/06 03:23:27;;;;;;;9.13;5.37;;;;;;;;;;5099538;28;20289;-63
2022/11/06 03:25:56;;;;;;;6.87;5.40;;;;;;;;;;5099400;28;20592;-63
2022/11/06 03:28:30;;;;;;;10.70;5.53;;;;;;;;;;5099673;28;20209;-63
2022/11/06 03:30:59;;;;;;;8.20;5.50;;;;;;;;;;5099216;28;20237;-63
2022/11/06 03:33:31;;;;;;;7.13;5.97;;;;;;;;;;5099272;28;20295;-63
2022/11/06 03:36:02;;;;;;;9.40;5.03;;;;;;;;;;5098778;28;20232;-63
2022/11/06 03:38:31;;;;;;;8.20;6.00;;;;;;;;;;5099326;28;20717;-63
2022/11/06 03:41:00;;;;;;;9.50;4.67;;;;;;;;;;5098930;28;20265;-63
2022/11/06 03:43:32;;;;;;;8.63;5.60;;;;;;;;;;5098966;28;20252;-63
2022/11/06 03:46:01;;;;;;;7.03;5.43;;;;;;;;;;5098991;28;20248;-62
2022/11/06 03:48:32;;;;;;;9.57;5.80;;;;;;;;;;5099181;28;20737;-63
2022/11/06 03:51:02;;;;;;;7.27;5.00;;;;;;;;;;5098930;28;20232;-63
2022/11/06 03:53:32;;;;;;;12.10;5.30;;;;;;;;;;5098928;28;20268;-63
2022/11/06 03:56:02;;;;;;;7.97;4.70;;;;;;;;;;5098672;28;20201;-63
2022/11/06 03:58:33;;;;;;;6.97;5.17;;;;;;;;;;5098221;28;20641;-63
2022/11/06 04:01:03;;;;;;;8.17;5.67;;;;;;;;;;5094892;28;20312;-63
2022/11/06 04:03:34;;;;;;;5.30;4.73;;;;;;;;;;5097075;28;20279;-62
2022/11/06 04:06:06;;;;;;;7.97;5.53;;;;;;;;;;5098312;28;20240;-63
2022/11/06 04:14:09;;;;;;;7.40;4.47;;;;;;;;;;5096745;28;20557;-63
2022/11/06 04:16:38;;;;;;;8.90;5.47;;;;;;;;;;5097681;28;20198;-63
2022/11/06 04:19:06;;;;;;;4.73;4.27;;;;;;;;;;5095045;28;20241;-64
2022/11/06 04:21:41;;;;;;;6.43;4.30;;;;;;;;;;5097629;28;20221;-63
2022/11/06 04:27:08;;;;;;;6.83;4.83;;;;;;;;;;5095660;28;20232;-62
2022/11/06 04:29:42;;;;;;;8.10;4.53;;;;;;;;;;5097604;28;20721;-63
2022/11/06 04:32:12;;;;;;;12.23;5.20;;;;;;;;;;5096798;28;20288;-62
2022/11/06 04:34:43;;;;;;;9.10;5.10;;;;;;;;;;5096224;28;20257;-62
2022/11/06 04:37:14;;;;;;;8.80;5.60;;;;;;;;;;5096062;28;20232;-64
2022/11/06 04:39:46;;;;;;;8.10;5.00;;;;;;;;;;5095274;28;20207;-63
2022/11/06 04:42:17;;;;;;;5.37;4.20;;;;;;;;;;5097295;28;20304;-63
2022/11/06 04:44:48;;;;;;;9.30;5.23;;;;;;;;;;5095027;28;20268;-63
2022/11/06 04:47:17;;;;;;;7.83;4.73;;;;;;;;;;5097119;28;20291;-63
2022/11/06 04:49:45;;;;;;;5.73;4.27;;;;;;;;;;5097519;28;20251;-63
2022/11/06 04:52:15;;;;;;;10.83;4.70;;;;;;;;;;5097327;28;20221;-63
2022/11/06 04:54:44;;;;;;;5.93;4.47;;;;;;;;;;5094629;28;20242;-63
2022/11/06 04:57:11;;;;;;;7.33;4.67;;;;;;;;;;5097221;28;20308;-62
2022/11/06 04:59:39;;;;;;;7.43;4.70;;;;;;;;;;5097008;28;20206;-63
2022/11/06 05:02:08;;;;;;;6.13;4.67;;;;;;;;;;5096658;28;20308;-63
2022/11/06 05:04:36;;;;;;;6.83;4.33;;;;;;;;;;5097076;28;20253;-63
2022/11/06 05:07:04;;;;;;;5.13;4.63;;;;;;;;;;5095333;28;20618;-62
2022/11/06 05:09:32;;;;;;;7.30;4.43;;;;;;;;;;5097079;28;20312;-63
2022/11/06 05:11:59;;;;;;;10.27;4.47;;;;;;;;;;5096722;28;20702;-63
2022/11/06 05:14:27;;;;;;;7.73;4.20;;;;;;;;;;5096695;28;20222;-63
2022/11/06 05:16:55;;;;;;;9.77;4.70;;;;;;;;;;5097295;28;20292;-62
2022/11/06 05:19:24;;;;;;;6.60;4.47;;;;;;;;;;5097457;28;20236;-63
2022/11/06 05:24:36;;;;;;;4.90;3.50;;;;;;;;;;5097241;28;20225;-63
2022/11/06 05:27:04;;;;;;;6.07;4.00;;;;;;;;;;5097893;28;20274;-62
2022/11/06 05:29:32;;;;;;;6.20;4.07;;;;;;;;;;5097259;28;20241;-63
2022/11/06 05:31:59;;;;;;;7.83;4.70;;;;;;;;;;5095205;28;20194;-62
2022/11/06 05:34:28;;;;;;;7.60;4.67;;;;;;;;;;5096501;28;20249;-63
2022/11/06 05:36:56;;;;;;;6.00;4.50;;;;;;;;;;5097409;28;20214;-62
2022/11/06 05:39:24;;;;;;;6.00;4.20;;;;;;;;;;5097154;28;20248;-63
2022/11/06 05:41:52;;;;;;;4.70;3.87;;;;;;;;;;5097604;28;20236;-63
2022/11/06 05:44:20;;;;;;;6.30;4.43;;;;;;;;;;5097585;28;20222;-63
2022/11/06 05:46:47;;;;;;;7.57;4.10;;;;;;;;;;5097496;28;20319;-64
2022/11/06 05:49:17;;;;;;;7.50;5.00;;;;;;;;;;5097268;28;20206;-63
2022/11/06 05:51:46;;;;;;;6.40;4.30;;;;;;;;;;5097206;28;20229;-63
2022/11/06 05:54:14;;;;;;;6.53;4.03;;;;;;;;;;5097370;28;20257;-63
2022/11/06 05:56:42;;;;;;;4.50;3.77;;;;;;;;;;5097276;28;20269;-63
2022/11/06 05:59:09;;;;;;;6.43;4.27;;;;;;;;;;5097165;28;20608;-62
2022/11/06 06:01:37;;;;;;;8.03;4.43;;;;;;;;;;5096804;28;20270;-62
2022/11/06 06:04:05;;;;;;;4.60;4.20;;;;;;;;;;5097148;28;20267;-62
2022/11/06 06:06:33;;;;;;;6.93;3.63;;;;;;;;;;5097552;28;20205;-62
2022/11/06 06:09:02;;;;;;;7.60;4.27;;;;;;;;;;5096221;28;20280;-62
2022/11/06 06:11:30;;;;;;;7.47;4.73;;;;;;;;;;5097325;28;20293;-62
2022/11/06 06:13:57;;;;;;;7.00;4.77;;;;;;;;;;5099071;28;20307;-63
2022/11/06 06:16:25;;;;;;;7.07;4.20;;;;;;;;;;5099357;28;20530;-63
2022/11/06 06:18:52;;;;;;;4.53;4.13;;;;;;;;;;5090117;28;20471;-62
2022/11/06 06:21:20;;;;;;;5.03;3.67;;;;;;;;;;5101036;28;20205;-62
2022/11/06 06:23:48;;;;;;;9.37;4.90;;;;;;;;;;5100777;28;20245;-63
2022/11/06 06:26:17;;;;;;;8.90;4.40;;;;;;;;;;5101430;28;20233;-63
2022/11/06 06:28:47;;;;;;;5.27;3.73;;;;;;;;;;5100675;28;20237;-63
2022/11/06 06:31:15;;;;;;;6.20;4.17;;;;;;;;;;5100843;28;20259;-62
2022/11/06 06:33:43;;;;;;;5.27;4.50;;;;;;;;;;5096820;28;20253;-62
2022/11/06 06:36:10;;;;;;;6.27;4.57;;;;;;;;;;5100407;28;20233;-62
2022/11/06 06:38:38;;;;;;;5.83;4.50;;;;;;;;;;5099811;28;20226;-62
2022/11/06 06:41:06;;;;;;;9.10;5.50;;;;;;;;;;5100534;28;20240;-62
2022/11/06 06:43:36;;;;;;;8.97;4.70;;;;;;;;;;5093093;28;20245;-63
2022/11/06 06:46:05;;;;;;;8.67;4.77;;;;;;;;;;5100490;28;20653;-63
2022/11/06 06:48:32;;;;;;;7.97;4.73;;;;;;;;;;5096501;28;20205;-63
2022/11/06 06:51:00;;;;;;;9.27;4.23;;;;;;;;;;5099691;28;20240;-63
2022/11/06 06:53:28;;;;;;;5.40;4.30;;;;;;;;;;5099973;28;20309;-63
2022/11/06 06:55:57;;;;;;;4.90;4.30;;;;;;;;;;5100276;28;20237;-62
2022/11/06 06:58:25;;;;;;;9.93;4.80;;;;;;;;;;5099958;28;20202;-63
2022/11/06 07:00:54;;;;;;;7.23;5.10;;;;;;;;;;5100235;28;20237;-63
2022/11/06 07:03:22;;;;;;;7.20;4.40;;;;;;;;;;5097775;28;20214;-62
2022/11/06 07:05:50;;;;;;;5.37;4.47;;;;;;;;;;5100002;28;20241;-62
2022/11/06 07:08:17;;;;;;;4.97;4.40;;;;;;;;;;5099975;28;20248;-62
2022/11/06 07:10:45;;;;;;;6.70;4.60;;;;;;;;;;5099871;28;20206;-63
2022/11/06 07:13:13;;;;;;;5.20;4.67;;;;;;;;;;5099818;28;20226;-63
2022/11/06 07:15:41;;;;;;;7.07;4.10;;;;;;;;;;5099881;28;20212;-62
2022/11/06 07:18:10;;;;;;;6.13;4.17;;;;;;;;;;5096872;28;20256;-62
2022/11/06 07:20:39;;;;;;;5.50;4.57;;;;;;;;;;5099866;28;20669;-63
2022/11/06 07:23:07;;;;;;;6.77;4.90;;;;;;;;;;5095655;28;20230;-62
2022/11/06 07:25:35;;;;;;;10.73;6.23;;;;;;;;;;5089991;28;20266;-62
2022/11/06 07:28:03;;;;;;;6.23;4.70;;;;;;;;;;5099684;28;20295;-63
2022/11/06 07:30:31;;;;;;;5.93;4.40;;;;;;;;;;5099749;28;20273;-62
2022/11/06 07:32:59;;;;;;;6.23;4.23;;;;;;;;;;5099240;28;20257;-63
2022/11/06 07:35:29;;;;;;;8.73;4.83;;;;;;;;;;5099515;28;20360;-62
2022/11/06 07:37:56;;;;;;;6.73;4.70;;;;;;;;;;5099189;28;20647;-62
2022/11/06 07:40:24;;;;;;;5.70;4.37;;;;;;;;;;5099586;28;20217;-62
2022/11/06 07:42:52;;;;;;;8.20;5.03;;;;;;;;;;5099416;28;20285;-62
2022/11/06 07:45:19;;;;;;;10.30;4.73;;;;;;;;;;5099093;28;20259;-62
2022/11/06 07:47:47;;;;;;;4.93;3.97;;;;;;;;;;5098161;28;20284;-62
2022/11/06 07:50:15;;;;;;;5.70;4.40;;;;;;;;;;5099076;28;20244;-62
2022/11/06 07:52:44;;;;;;;7.60;4.70;;;;;;;;;;5098755;28;20279;-63
2022/11/06 07:55:11;;;;;;;8.30;5.07;;;;;;;;;;5099163;28;20226;-62
2022/11/06 07:57:39;;;;;;;8.67;4.97;;;;;;;;;;5098714;28;20320;-62
2022/11/06 08:00:08;;;;;;;7.97;4.70;;;;;;;;;;5098972;28;20261;-62
2022/11/06 08:02:35;;;;;;;10.53;7.00;;;;;;;;;;5099087;28;20685;-62
2022/11/06 08:05:03;;;;;;;10.90;5.77;;;;;;;;;;5098727;28;20279;-62
2022/11/06 08:07:31;;;;;;;13.37;6.50;;;;;;;;;;5098865;28;20239;-63
2022/11/06 08:10:00;;;;;;;10.23;7.27;;;;;;;;;;5098665;28;21064;-63
2022/11/06 08:12:27;;;;;;;8.37;6.70;;;;;;;;;;5098680;28;20275;-63
2022/11/06 08:14:55;;;;;;;9.07;5.73;;;;;;;;;;5098701;28;20261;-63
2022/11/06 08:17:23;;;;;;;12.03;5.70;;;;;;;;;;5098112;28;20229;-63
2022/11/06 08:19:51;;;;;;;11.43;5.63;;;;;;;;;;5098511;28;20233;-63
2022/11/06 08:22:18;;;;;;;7.13;5.70;;;;;;;;;;5098654;28;20684;-63
2022/11/06 08:24:46;;;;;;;8.47;5.60;;;;;;;;;;5098203;28;20259;-63
2022/11/06 08:27:15;;;;;;;8.60;5.57;;;;;;;;;;5098565;28;20209;-63
2022/11/06 08:29:43;;;;;;;9.60;5.90;;;;;;;;;;5098493;28;20213;-63
2022/11/06 08:32:11;;;;;;;7.63;5.03;;;;;;;;;;5098552;28;20317;-63
2022/11/06 08:34:38;;;;;;;6.00;4.23;;;;;;;;;;5097898;28;20293;-63
2022/11/06 08:37:06;;;;;;;10.30;4.90;;;;;;;;;;5097359;28;20209;-63
2022/11/06 08:39:34;;;;;;;9.13;7.20;;;;;;;;;;5098293;28;20289;-63
2022/11/06 08:42:01;;;;;;;5.83;4.80;;;;;;;;;;5098268;28;20206;-63
2022/11/06 08:44:30;;;;;;;7.73;4.80;;;;;;;;;;5098037;28;20252;-63
2022/11/06 08:46:58;;;;;;;7.20;5.37;;;;;;;;;;5095688;28;20201;-63
2022/11/06 08:49:26;;;;;;;7.47;5.10;;;;;;;;;;5096748;28;20288;-63
2022/11/06 08:51:53;;;;;;;9.17;6.80;;;;;;;;;;5097742;28;20240;-63
2022/11/06 08:54:21;;;;;;;6.07;5.00;;;;;;;;;;5097892;28;20263;-63
2022/11/06 08:56:49;;;;;;;7.53;5.90;;;;;;;;;;5096695;28;20272;-63
2022/11/06 08:59:17;;;;;;;7.20;5.37;;;;;;;;;;5097800;28;20241;-63
2022/11/06 09:01:46;;;;;;;6.17;4.97;;;;;;;;;;5097844;28;20293;-63
2022/11/06 09:04:13;;;;;;;7.03;5.13;;;;;;;;;;5097071;28;20222;-63
2022/11/06 09:06:41;;;;;;;7.90;5.10;;;;;;;;;;5097808;28;20673;-63
2022/11/06 09:09:09;;;;;;;9.63;6.13;;;;;;;;;;5097517;28;20248;-62
2022/11/06 09:11:36;;;;;;;7.60;5.50;;;;;;;;;;5097841;28;20240;-63
2022/11/06 09:14:04;;;;;;;6.13;4.90;;;;;;;;;;5097676;28;20768;-63
2022/11/06 09:16:32;;;;;;;5.97;5.17;;;;;;;;;;5098104;28;20288;-63
2022/11/06 09:19:01;;;;;;;9.13;5.23;;;;;;;;;;5097531;28;20649;-63
2022/11/06 09:21:29;;;;;;;8.50;5.03;;;;;;;;;;5097719;28;20233;-63
2022/11/06 09:23:56;;;;;;;10.33;6.10;;;;;;;;;;5097334;28;20225;-63
2022/11/06 09:26:24;;;;;;;10.80;5.03;;;;;;;;;;5097452;28;20240;-63
2022/11/06 09:28:52;;;;;;;6.50;5.27;;;;;;;;;;5096971;28;20266;-63
2022/11/06 09:31:20;;;;;;;8.93;5.13;;;;;;;;;;5097008;28;20333;-63
2022/11/06 09:33:47;;;;;;;7.47;4.70;;;;;;;;;;5096915;28;20286;-63
2022/11/06 09:36:16;;;;;;;8.80;5.30;;;;;;;;;;5097061;28;20225;-62
2022/11/06 09:38:44;;;;;;;7.70;4.90;;;;;;;;;;5096711;28;20284;-60
2022/11/06 09:41:17;;;;;;;8.87;5.30;;;;;;;;;;5097196;28;20229;-60
2022/11/06 09:43:53;;;;;;;7.37;4.80;;;;;;;;;;5095140;28;20309;-60
2022/11/06 09:46:40;;;;;;;7.63;5.07;;;;;;;;;;5096991;28;20208;-60
2022/11/06 09:49:12;;;;;;;11.47;6.50;;;;;;;;;;5099496;28;20255;-60
2022/11/06 09:51:44;;;;;;;7.47;5.33;;;;;;;;;;5098744;28;20289;-60
2022/11/06 09:54:14;;;;;;;5.53;4.87;;;;;;;;;;5099964;28;20229;-60
2022/11/06 09:56:44;;;;;;;7.57;4.33;;;;;;;;;;5101068;28;20328;-64
2022/11/06 09:59:13;;;;;;;13.07;5.50;;;;;;;;;;5101283;28;20205;-63
2022/11/06 10:01:42;;;;;;;8.17;5.37;;;;;;;;;;5101446;28;20288;-64
2022/11/06 10:04:16;;;;;;;4.77;4.13;;;;;;;;;;5100692;28;20346;-65
2022/11/06 10:06:45;;;;;;;7.30;4.13;;;;;;;;;;5101335;28;20206;-65
2022/11/06 10:09:13;;;;;;;5.57;3.60;;;;;;;;;;5101147;28;20237;-64
2022/11/06 10:11:48;;;;;;;6.43;5.00;;;;;;;;;;5100116;28;20213;-64
2022/11/06 10:14:21;;;;;;;5.57;4.00;;;;;;;;;;5099069;28;20252;-64
2022/11/06 10:16:52;;;;;;;7.20;4.70;;;;;;;;;;5095973;28;20281;-64
2022/11/06 10:19:24;;;;;;;10.97;6.37;;;;;;;;;;5094859;28;20263;-64
2022/11/06 10:21:57;;;;;;;7.03;3.97;;;;;;;;;;5100670;28;20244;-64
2022/11/06 10:24:30;;;;;;;5.50;4.57;;;;;;;;;;5088426;28;20253;-64
2022/11/06 10:26:58;;;;;;;5.00;3.97;;;;;;;;;;5101002;28;20236;-63
2022/11/06 10:29:41;;;;;;;5.57;3.67;;;;;;;;;;5100870;28;20656;-65
2022/11/06 10:32:15;;;;;;;5.23;4.17;;;;;;;;;;5100964;28;20228;-64
2022/11/06 10:34:43;;;;;;;6.27;4.40;;;;;;;;;;5099245;28;20288;-64
2022/11/06 10:37:16;;;;;;;6.63;4.23;;;;;;;;;;5100409;28;20293;-64
2022/11/06 10:39:45;;;;;;;6.67;4.33;;;;;;;;;;5100530;28;20237;-64
2022/11/06 10:42:15;;;;;;;6.43;4.00;;;;;;;;;;5100354;28;20244;-65
2022/11/06 10:44:47;;;;;;;5.27;4.03;;;;;;;;;;5100396;28;20300;-65
2022/11/06 10:47:17;;;;;;;7.17;4.13;;;;;;;;;;5100177;28;20292;-65
2022/11/06 10:49:46;;;;;;;5.47;3.10;;;;;;;;;;5100236;28;20308;-64
2022/11/06 10:52:36;;;;;;;5.30;3.40;;;;;;;;;;5100251;28;20206;-65
2022/11/06 10:55:14;;;;;;;4.90;3.80;;;;;;;;;;5100267;28;20265;-64
2022/11/06 10:57:44;;;;;;;4.90;3.50;;;;;;;;;;5100122;28;20696;-65
2022/11/06 11:00:15;;;;;;;5.00;3.67;;;;;;;;;;5095640;28;20224;-64
2022/11/06 11:02:44;;;;;;;6.07;3.53;;;;;;;;;;5100324;28;20237;-64
2022/11/06 11:05:13;;;;;;;4.27;3.73;;;;;;;;;;5091363;28;20685;-65
2022/11/06 11:07:49;;;;;;;4.27;3.30;;;;;;;;;;5098092;28;20209;-65
2022/11/06 11:10:30;;;;;;;5.73;3.57;;;;;;;;;;5094300;28;20202;-64
2022/11/06 11:12:59;;;;;;;13.27;8.33;;;;;;;;;;5096504;28;20201;-64
2022/11/06 11:15:39;;;;;;;5.50;4.30;;;;;;;;;;5097760;28;20358;-65
2022/11/06 11:18:07;;;;;;;7.43;5.57;;;;;;;;;;5094713;28;20268;-65
2022/11/06 11:20:36;;;;;;;6.17;4.57;;;;;;;;;;5099193;28;20205;-65
2022/11/06 11:23:12;;;;;;;6.20;4.23;;;;;;;;;;5094038;28;20213;-66
2022/11/06 11:25:41;;;;;;;5.73;3.77;;;;;;;;;;5099843;28;20205;-65
2022/11/06 11:28:12;;;;;;;4.20;3.60;;;;;;;;;;5099188;28;20212;-66
2022/11/06 11:30:39;;;;;;;3.73;3.30;;;;;;;;;;5099390;28;20220;-66
2022/11/06 11:33:12;;;;;;;4.57;3.93;;;;;;;;;;5097526;28;20284;-65
2022/11/06 11:35:40;;;;;;;3.80;3.33;;;;;;;;;;5099255;28;20712;-64
2022/11/06 11:38:11;;;;;;;5.77;4.10;;;;;;;;;;5098942;28;20209;-65
2022/11/06 11:40:39;;;;;;;5.03;3.97;;;;;;;;;;5099363;28;20221;-65
2022/11/06 11:43:25;;;;;;;4.40;4.00;;;;;;;;;;5099416;28;20301;-65
2022/11/06 11:46:12;;;;;;;7.63;3.77;;;;;;;;;;5096834;28;20189;-65
2022/11/06 11:48:44;;;;;;;4.33;3.73;;;;;;;;;;5084128;28;20237;-65
2022/11/06 11:51:13;;;;;;;4.77;4.30;;;;;;;;;;5091217;28;20244;-63
2022/11/06 11:53:42;;;;;;;7.60;4.50;;;;;;;;;;5098270;28;20221;-64
2022/11/06 11:56:14;;;;;;;4.40;4.00;;;;;;;;;;5098688;28;20275;-63
2022/11/06 11:58:48;;;;;;;5.13;3.80;;;;;;;;;;5102457;28;20237;-63
2022/11/06 12:01:16;;;;;;;7.37;3.77;;;;;;;;;;5103331;28;20288;-63
2022/11/06 12:03:46;;;;;;;8.27;4.33;;;;;;;;;;5098347;28;20261;-63
2022/11/06 12:06:16;;;;;;;4.83;3.87;;;;;;;;;;5088169;28;20362;-64
2022/11/06 12:08:47;;;;;;;5.73;3.90;;;;;;;;;;5098128;28;20636;-65
2022/11/06 12:11:16;;;;;;;6.17;4.73;;;;;;;;;;5094746;28;20229;-65
2022/11/06 12:13:43;;;;;;;5.23;4.00;;;;;;;;;;5096996;28;20260;-65
2022/11/06 12:16:14;;;;;;;4.23;3.63;;;;;;;;;;5098177;28;20292;-65
2022/11/06 12:18:45;;;;;;;5.47;3.90;;;;;;;;;;5089886;28;20213;-65
2022/11/06 12:21:15;;;;;;;3.87;3.57;;;;;;;;;;5098552;28;20213;-64
2022/11/06 12:23:46;;;;;;;4.70;3.30;;;;;;;;;;5098301;28;20308;-64
2022/11/06 12:26:20;;;;;;;7.63;4.37;;;;;;;;;;5084973;28;20239;-64
2022/11/06 12:28:49;;;;;;;5.53;4.37;;;;;;;;;;5097446;28;20236;-64
2022/11/06 12:31:20;;;;;;;3.80;3.50;;;;;;;;;;5084534;28;20274;-64
2022/11/06 12:33:48;;;;;;;3.60;3.10;;;;;;;;;;5097575;28;20260;-64
2022/11/06 12:36:38;;;;;;;4.80;3.30;;;;;;;;;;5098034;28;20758;-64
2022/11/06 12:39:10;;;;;;;4.73;3.50;;;;;;;;;;5097933;28;20263;-64
2022/11/06 12:41:40;;;;;;;5.93;3.20;;;;;;;;;;5097864;28;20296;-64
2022/11/06 12:44:09;;;;;;;4.67;2.80;;;;;;;;;;5096835;28;20662;-64
2022/11/06 12:46:40;;;;;;;8.53;4.63;;;;;;;;;;5097348;28;20198;-64
2022/11/06 12:49:35;;;;;;;6.60;4.30;;;;;;;;;;5097528;28;20216;-64
2022/11/06 12:52:18;;;;;;;6.40;2.90;;;;;;;;;;5098003;28;20237;-64
2022/11/06 12:54:53;;;;;;;3.40;2.63;;;;;;;;;;5093637;28;20312;-65
2022/11/06 12:57:26;;;;;;;4.00;2.30;;;;;;;;;;5095466;28;20768;-62
2022/11/06 13:00:02;;;;;;;4.13;2.60;;;;;;;;;;5097473;28;20245;-62
2022/11/06 13:02:37;;;;;;;4.83;2.57;;;;;;;;;;5087336;28;20201;-62
2022/11/06 13:05:08;;;;;;;4.13;2.40;;;;;;;;;;5096534;28;20267;-63
2022/11/06 13:08:05;;;;;;;2.77;2.47;;;;;;;;;;5095720;28;20288;-64
2022/11/06 13:10:36;;;;;;;2.50;1.93;;;;;;;;;;5097370;28;20209;-62
2022/11/06 13:13:21;;;;;;;2.77;2.40;;;;;;;;;;5097212;28;20236;-62
2022/11/06 13:15:53;;;;;;;4.70;2.47;;;;;;;;;;5096859;28;20225;-62
2022/11/06 13:18:22;;;;;;;3.63;2.27;;;;;;;;;;5089595;28;20202;-61
2022/11/06 13:20:52;;;;;;;2.20;2.00;;;;;;;;;;5095086;28;20208;-61
2022/11/06 13:23:25;;;;;;;5.70;2.67;;;;;;;;;;5090342;28;20261;-61
2022/11/06 13:25:55;;;;;;;3.23;2.67;;;;;;;;;;5096371;28;20201;-61
2022/11/06 13:28:28;;;;;;;5.40;2.40;;;;;;;;;;5097455;28;20263;-61
2022/11/06 13:30:58;;;;;;;3.07;2.77;;;;;;;;;;5091915;28;20265;-62
2022/11/06 13:33:27;;;;;;;2.80;2.60;;;;;;;;;;5087689;28;20785;-61
2022/11/06 13:35:56;;;;;;;2.97;2.37;;;;;;;;;;5092858;28;20257;-61
2022/11/06 13:38:27;;;;;;;2.60;2.03;;;;;;;;;;5096651;28;20611;-62
2022/11/06 13:40:57;;;;;;;2.30;1.90;;;;;;;;;;5096893;28;20227;-63
2022/11/06 13:43:34;;;;;;;2.63;2.10;;;;;;;;;;5079215;28;20226;-63
2022/11/06 13:46:05;;;;;;;3.77;2.30;;;;;;;;;;5091436;28;20271;-61
2022/11/06 13:48:37;;;;;;;2.40;2.20;;;;;;;;;;5096304;28;20233;-63
2022/11/06 13:51:08;;;;;;;2.17;1.60;;;;;;;;;;5095994;28;20665;-64
2022/11/06 13:53:41;;;;;;;2.33;2.13;;;;;;;;;;5095593;28;20260;-63
2022/11/06 13:56:14;;;;;;;1.63;1.53;;;;;;;;;;5095834;28;20268;-63
2022/11/06 13:58:48;;;;;;;2.03;1.83;;;;;;;;;;5096206;28;20223;-62
2022/11/06 14:01:26;;;;;;;1.70;1.60;;;;;;;;;;5096616;28;20201;-62
2022/11/06 14:04:06;;;;;;;2.23;1.70;;;;;;;;;;5096607;28;20233;-61
2022/11/06 14:06:35;;;;;;;1.50;1.40;;;;;;;;;;5096669;28;20228;-62
2022/11/06 14:09:05;;;;;;;1.40;1.30;;;;;;;;;;5094094;28;20233;-62
2022/11/06 14:11:35;;;;;;;2.77;1.80;;;;;;;;;;5097098;28;20719;-62
2022/11/06 14:14:04;;;;;;;1.80;1.27;;;;;;;;;;5095897;28;20275;-63
2022/11/06 14:16:37;;;;;;;1.67;1.30;;;;;;;;;;5096484;28;20217;-62
2022/11/06 14:19:06;;;;;;;1.40;1.30;;;;;;;;;;5096716;28;20229;-64
2022/11/06 14:21:45;;;;;;;1.47;1.37;;;;;;;;;;5096823;28;20241;-63
2022/11/06 14:24:17;;;;;;;1.90;1.40;;;;;;;;;;5096515;28;20229;-63
2022/11/06 14:26:45;;;;;;;1.53;1.43;;;;;;;;;;5096644;28;20290;-63
2022/11/06 14:29:37;;;;;;;1.33;1.30;;;;;;;;;;5095994;28;20229;-64
2022/11/06 14:32:10;;;;;;;1.93;1.57;;;;;;;;;;5096364;28;20245;-62
2022/11/06 14:34:39;;;;;;;2.33;1.57;;;;;;;;;;5096726;28;20335;-64
2022/11/06 14:37:27;;;;;;;4.10;2.10;;;;;;;;;;5099624;28;20260;-62
2022/11/06 14:40:04;;;;;;;2.10;1.90;;;;;;;;;;5079215;28;20614;-62
2022/11/06 14:42:35;;;;;;;2.03;1.77;;;;;;;;;;5097845;28;20204;-63
2022/11/06 14:45:08;;;;;;;1.83;1.70;;;;;;;;;;5099318;28;20245;-63
2022/11/06 14:47:38;;;;;;;1.40;1.30;;;;;;;;;;5099669;28;20194;-62
2022/11/06 14:50:08;;;;;;;2.27;1.90;;;;;;;;;;5099302;28;20284;-62
2022/11/06 14:52:41;;;;;;;1.93;1.67;;;;;;;;;;5095096;28;20209;-64
2022/11/06 14:55:19;;;;;;;2.67;1.50;;;;;;;;;;5099905;28;20309;-64
2022/11/06 14:57:49;;;;;;;2.23;1.50;;;;;;;;;;5099550;28;20275;-63
2022/11/06 15:00:31;;;;;;;2.13;1.60;;;;;;;;;;5102359;28;20281;-62
2022/11/06 15:03:01;;;;;;;1.83;1.73;;;;;;;;;;5099618;28;20292;-63
2022/11/06 15:05:30;;;;;;;1.93;1.73;;;;;;;;;;5098745;28;20205;-62
2022/11/06 15:07:58;;;;;;;1.80;1.70;;;;;;;;;;5098672;28;20230;-63
2022/11/06 15:10:50;;;;;;;1.40;1.30;;;;;;;;;;5098174;28;20659;-63
2022/11/06 15:13:25;;;;;;;1.80;1.70;;;;;;;;;;5098667;28;20197;-63